Weather reports worldwide

Advertisment
Bramham, United Kingdom (99077): temperature & dewpoint: 19.01.2020 18:00:00 - 25.01.2020 18:00:00 (GMT)Bramham, United Kingdom (99077): wind speed: 19.01.2020 18:00:00 - 25.01.2020 18:00:00 (GMT)Bramham, United Kingdom (99077): wind direction: 19.01.2020 18:00:00 - 25.01.2020 18:00:00 (GMT)Bramham, United Kingdom (99077): precipitation: 19.01.2020 18:00:00 - 25.01.2020 18:00:00 (GMT)
Date & Time tt [°C] td [°C] ff [km/h] ff [kn] dd rr [mm]
25.01.2020 18:00:00 - - - - - -
25.01.2020 17:00:00 6,2 2,4 11 6 S 0,0
25.01.2020 16:00:00 6,3 2,4 18 10 SSW 0,0
25.01.2020 15:00:00 6,3 3,2 15 8 SSW 0,0
25.01.2020 14:00:00 6,3 3,2 16 9 SSW 0,0
25.01.2020 13:00:00 6,3 3,8 21 11 SSW 0,0
25.01.2020 12:00:00 6,6 4,1 21 11 SSW 0,0
25.01.2020 11:00:00 6,7 4,6 18 10 SSW 0,0
25.01.2020 10:00:00 6,6 4,6 15 8 SSW 0,0
25.01.2020 09:00:00 6,4 5,0 9 5 SSW 0,0
25.01.2020 08:00:00 6,3 5,1 11 6 SSW 0,0
25.01.2020 07:00:00 6,5 4,9 9 5 SW 0,0
25.01.2020 06:00:00 6,4 4,7 13 7 S 0,0
25.01.2020 05:00:00 6,4 5,0 15 8 S 0,0
25.01.2020 04:00:00 6,4 4,9 9 5 SSW 0,0
25.01.2020 03:00:00 6,0 4,9 9 5 S 0,0
25.01.2020 02:00:00 5,7 4,7 8 4 SSW 0,0
25.01.2020 01:00:00 6,0 4,6 11 6 SSW 0,0
25.01.2020 00:00:00 6,4 4,9 11 6 SW 0,0
24.01.2020 23:00:00 6,3 4,6 13 7 WSW 0,0
24.01.2020 22:00:00 6,2 4,8 9 5 SW 0,0
24.01.2020 21:00:00 6,7 4,9 13 7 WSW 0,0
24.01.2020 20:00:00 6,8 5,3 13 7 WSW 0,0
24.01.2020 19:00:00 6,5 4,9 9 5 WSW 0,0
24.01.2020 18:00:00 6,8 5,0 13 7 WSW 0,0
24.01.2020 17:00:00 7,2 5,1 11 6 WSW 0,0
24.01.2020 16:00:00 8,2 5,4 11 6 W 0,0
24.01.2020 15:00:00 9,1 5,7 15 8 W 0,0
24.01.2020 14:00:00 9,0 5,9 15 8 W 0,0
24.01.2020 13:00:00 9,0 5,6 15 8 W 0,0
24.01.2020 12:00:00 8,7 5,3 21 11 W 0,0
24.01.2020 11:00:00 8,2 5,6 15 8 W 0,0
24.01.2020 10:00:00 6,8 4,9 11 6 WNW 0,0
24.01.2020 09:00:00 6,4 4,6 11 6 W 0,0
24.01.2020 08:00:00 6,7 4,8 16 9 W 0,0
24.01.2020 07:00:00 6,8 4,9 11 6 W 0,0
24.01.2020 06:00:00 6,9 5,3 9 5 WSW 0,0
24.01.2020 05:00:00 6,2 5,0 5 3 WSW 0,0
24.01.2020 04:00:00 6,0 4,8 4 2 WNW 0,0
24.01.2020 03:00:00 5,8 4,8 5 3 WNW 0,0
24.01.2020 02:00:00 6,2 4,8 11 6 WNW 0,0
24.01.2020 01:00:00 6,2 4,5 13 7 W 0,0
24.01.2020 00:00:00 7,1 5,1 16 9 W 0,0
23.01.2020 23:00:00 7,4 5,2 18 10 W 0,0
23.01.2020 22:00:00 7,4 5,4 16 9 W 0,0
23.01.2020 21:00:00 7,6 5,9 13 7 W 0,0
23.01.2020 20:00:00 8,2 6,2 9 5 WSW 0,0
23.01.2020 19:00:00 8,3 6,4 11 6 WSW 0,0
23.01.2020 18:00:00 8,0 6,2 8 4 SW 0,0
23.01.2020 17:00:00 8,2 6,2 8 4 WSW 0,0
23.01.2020 16:00:00 8,2 6,4 11 6 W 0,0
23.01.2020 15:00:00 8,4 6,5 18 10 W 0,0
23.01.2020 14:00:00 9,1 7,1 11 6 WNW 0,0
23.01.2020 13:00:00 9,2 7,3 11 6 WNW 0,0
23.01.2020 12:00:00 8,9 6,9 13 7 W 0,0
23.01.2020 11:00:00 8,2 6,4 13 7 W 0,0
23.01.2020 10:00:00 7,5 6,3 15 8 W 0,0
23.01.2020 09:00:00 6,6 6,0 13 7 WSW 0,0
23.01.2020 08:00:00 7,1 6,6 11 6 SW 0,0
23.01.2020 07:00:00 7,1 6,6 9 5 SSW 0,0
23.01.2020 06:00:00 7,1 6,3 5 3 SW 0,0
23.01.2020 05:00:00 7,0 6,3 5 3 WSW 0,0
23.01.2020 04:00:00 7,0 6,5 9 5 SW 0,0
23.01.2020 03:00:00 6,5 6,2 9 5 SSW 0,0
23.01.2020 02:00:00 6,7 6,4 9 5 SW 0,0
23.01.2020 01:00:00 6,4 6,1 9 5 SW 0,0
23.01.2020 00:00:00 6,0 5,8 9 5 SW 0,0
22.01.2020 23:00:00 6,1 6,0 11 6 WSW 0,0
22.01.2020 22:00:00 6,4 6,4 9 5 WSW 0,2
22.01.2020 21:00:00 6,5 6,5 9 5 W 0,0
22.01.2020 20:00:00 6,2 6,0 13 7 W 0,0
22.01.2020 19:00:00 6,6 6,0 2 1 N 0,0
22.01.2020 18:00:00 7,7 6,6 5 3 W 0,0
22.01.2020 17:00:00 9,7 7,3 11 6 WSW 0,0
22.01.2020 16:00:00 12,7 8,1 5 3 WSW 0,0
22.01.2020 15:00:00 13,4 8,5 5 3 WSW 0,0
22.01.2020 14:00:00 13,6 9,3 5 3 WSW 0,0
22.01.2020 13:00:00 12,5 8,9 5 3 W 0,0
22.01.2020 12:00:00 11,2 8,5 4 2 WSW 0,0
22.01.2020 11:00:00 10,7 8,8 8 4 WSW 0,0
22.01.2020 10:00:00 8,6 7,7 11 6 W 0,0
22.01.2020 09:00:00 8,1 7,4 13 7 W 0,0
22.01.2020 08:00:00 7,3 7,0 13 7 W 0,0
22.01.2020 07:00:00 6,6 6,3 16 9 W 0,0
22.01.2020 06:00:00 6,5 6,0 15 8 W 0,0
22.01.2020 05:00:00 6,9 6,4 15 8 W 0,0
22.01.2020 04:00:00 6,6 6,1 9 5 W 0,0
22.01.2020 03:00:00 6,8 6,3 13 7 W 0,0
22.01.2020 02:00:00 7,0 6,5 21 11 W 0,0
22.01.2020 01:00:00 6,8 6,2 16 9 W 0,0
22.01.2020 00:00:00 7,2 6,4 16 9 W 0,0
21.01.2020 23:00:00 7,3 6,2 11 6 WSW 0,0
21.01.2020 22:00:00 7,7 6,6 18 10 W 0,0
21.01.2020 21:00:00 7,7 6,6 16 9 W 0,0
21.01.2020 20:00:00 7,6 6,4 18 10 W 0,0
21.01.2020 19:00:00 7,0 6,0 24 13 WNW 0,0
21.01.2020 18:00:00 6,7 5,7 16 9 W 0,0
21.01.2020 17:00:00 6,9 5,8 15 8 W 0,0
21.01.2020 16:00:00 7,6 6,3 16 9 W 0,0
21.01.2020 15:00:00 8,0 6,1 18 10 W 0,0
21.01.2020 14:00:00 10,2 6,8 9 5 WSW 0,0
21.01.2020 13:00:00 9,1 6,0 11 6 W 0,0
21.01.2020 12:00:00 8,4 5,6 13 7 W 0,0
21.01.2020 11:00:00 6,9 4,8 8 4 SW 0,0
21.01.2020 10:00:00 5,0 3,6 8 4 WSW 0,0
21.01.2020 09:00:00 3,1 2,1 8 4 SSW 0,0
21.01.2020 08:00:00 3,4 2,5 9 5 W 0,0
21.01.2020 07:00:00 1,9 0,8 8 4 SSW 0,0
21.01.2020 06:00:00 3,3 2,0 8 4 WSW 0,0
21.01.2020 05:00:00 3,1 1,8 9 5 WSW 0,0
21.01.2020 04:00:00 3,1 1,6 8 4 WSW 0,0
21.01.2020 03:00:00 3,7 1,9 9 5 W 0,0
21.01.2020 02:00:00 4,0 2,2 9 5 W 0,0
21.01.2020 01:00:00 4,5 2,1 8 4 WNW 0,0
21.01.2020 00:00:00 5,8 3,1 18 10 W 0,0
20.01.2020 23:00:00 5,8 3,1 21 11 W 0,0
20.01.2020 22:00:00 6,1 3,3 22 12 W 0,0
20.01.2020 21:00:00 6,1 3,1 28 15 W 0,0
20.01.2020 20:00:00 6,2 3,4 18 10 W 0,0
20.01.2020 19:00:00 5,9 3,2 16 9 W 0,0
20.01.2020 18:00:00 5,9 3,1 18 10 W 0,0
20.01.2020 17:00:00 6,1 3,3 16 9 W 0,0
20.01.2020 16:00:00 7,1 3,7 21 11 W 0,0
20.01.2020 15:00:00 7,5 3,7 21 11 W 0,0
20.01.2020 14:00:00 7,9 4,0 22 12 W 0,0
20.01.2020 13:00:00 7,8 4,3 24 13 W 0,0
20.01.2020 12:00:00 7,6 4,1 18 10 W 0,0
20.01.2020 11:00:00 6,7 3,9 18 10 WSW 0,0
20.01.2020 10:00:00 4,0 2,8 8 4 SSW 0,0
20.01.2020 09:00:00 2,9 1,9 9 5 S 0,0
20.01.2020 08:00:00 4,0 2,2 11 6 SSW 0,0
20.01.2020 07:00:00 4,8 3,0 16 9 WSW 0,0
20.01.2020 06:00:00 1,5 0,7 5 3 SSW 0,0
20.01.2020 05:00:00 4,3 2,8 11 6 WSW 0,0
20.01.2020 04:00:00 3,4 2,8 8 4 WSW 0,0
20.01.2020 03:00:00 1,4 0,6 5 3 S 0,0
20.01.2020 02:00:00 2,8 1,6 8 4 SW 0,0
20.01.2020 01:00:00 2,8 1,7 2 1 SSW 0,0
20.01.2020 00:00:00 3,4 1,7 5 3 SSW 0,0
19.01.2020 23:00:00 5,1 2,8 9 5 WSW 0,0
19.01.2020 22:00:00 4,9 3,0 9 5 WSW 0,0
19.01.2020 21:00:00 5,1 3,0 11 6 SW 0,0
19.01.2020 20:00:00 4,4 2,9 5 3 SSW 0,0
19.01.2020 19:00:00 4,3 2,8 8 4 SW 0,0
19.01.2020 18:00:00 4,3 2,8 9 5 SW 0,0

tt = temperature
td = dewpoint
ff = wind speed
dd = wind direction
rr = precipitation

Next stations